Route Details

Aircraft Information
Group: Large Widebodies
Types: B744, MD11
Route Data
Distance: 3848nm
Duration: 8h 34m
Origin METAR: KMIA 100553Z 00000KT 10SM CLR 22/18 A3008 RMK AO2 SLP185 T02220183 10250 20222 58006
Dest. METAR: SAEZ 100600Z 13006KT CAVOK 20/17 Q1010 NOSIG RMK PP000
Freight Data
(for Dec 10, 2022)
Load Factor:
73%
Manifested Cargo: 160,313lbs
Financial History
Total Freight: 667,614lbs
Average Load: 0lbs/flt
Fuel Used: 569,707lbs
Avg. Fuel Used: 0lbs/flt
Fuel Expense: $419,304
Avg. Fuel Expense: $0
Avg. Fuel Cost: $0/lbs
Total Gross Income: $2,038,996
Pilot Pay: $1,015
Total Expenses: $367,509
Total Revenue: $1,239,631
Average Revenue: $0

Capitol Logistics 795




KMIA
Miami International Airport
Miami, Florida
SAEZ
Aeropuerto Internacional Ezeiza/Ministro Pistarini
Buenos Aires,